.
WxDataArchive / Data Records for 2008-06-29
2008-06-28 June 2008 2008-06-30

Data Records for Sunday, 29 June 2008

Time	Temp	Chill	HIndex	Humid	Dewpt	 Wind 	HiWind	WindDir	Rain 	Barom 
-----	----	-----	------	-----	-----	------	------	-------	-----	----- 
00:00	71.5	71.5	71.5	59	56.4	0	2	270	0.00	29.706 
00:05	71.1	71.1	71.1	59	56.0	1	2	248	0.00	29.701 
00:10	70.9	70.9	70.9	60	56.3	0	2	248	0.00	29.702 
00:15	70.6	70.6	70.6	60	56.0	1	2	248	0.00	29.707 
00:20	70.4	70.4	70.4	60	55.8	1	4	248	0.00	29.708 
00:25	70.1	70.1	70.1	59	55.1	1	2	248	0.00	29.710 
00:30	70.1	70.1	70.1	55	53.2	2	4	248	0.00	29.711 
00:35	69.9	69.9	69.9	55	53.0	1	4	248	0.00	29.708 
00:40	69.8	69.8	69.8	56	53.4	1	2	248	0.00	29.705 
00:45	69.8	69.8	69.8	56	53.4	1	4	225	0.00	29.702 
00:50	69.4	69.4	69.4	55	52.5	1	4	270	0.00	29.704 
00:55	69.1	69.1	69.1	54	51.7	1	2	248	0.00	29.705 
01:00	68.8	68.8	68.8	55	52.0	0	2	248	0.00	29.701 
01:05	68.6	68.6	68.6	56	52.3	0	1	248	0.00	29.698 
01:10	68.3	68.3	68.3	55	51.5	0	1	248	0.00	29.697 
01:15	68.3	68.3	68.3	56	52.0	0	1	248	0.00	29.693 
01:20	67.9	67.9	67.9	55	51.1	0	1	248	0.00	29.691 
01:25	67.8	67.8	67.8	56	51.5	0	1	248	0.00	29.686 
01:30	67.4	67.4	67.4	57	51.6	0	1	248	0.00	29.685 
01:35	67.1	67.1	67.1	58	51.8	0	1	248	0.00	29.688 
01:40	66.8	66.8	66.8	59	52.0	0	0	---	0.00	29.688 
01:45	66.4	66.4	66.4	60	52.1	0	0	---	0.00	29.685 
01:50	66.3	66.3	66.3	61	52.4	0	0	---	0.00	29.683 
01:55	66.1	66.1	66.1	62	52.7	0	1	248	0.00	29.682 
02:00	66.1	66.1	66.1	63	53.1	0	1	248	0.00	29.681 
02:05	66.3	66.3	66.3	62	52.9	0	2	248	0.00	29.680 
02:10	66.4	66.4	66.4	61	52.5	0	1	248	0.00	29.677 
02:15	66.8	66.8	66.8	61	52.9	0	1	248	0.00	29.674 
02:20	66.8	66.8	66.8	60	52.5	0	1	248	0.00	29.668 
02:25	66.8	66.8	66.8	59	52.0	0	1	248	0.00	29.666 
02:30	66.8	66.8	66.8	58	51.5	0	1	248	0.00	29.669 
02:35	66.8	66.8	66.8	58	51.5	0	1	248	0.00	29.664 
02:40	66.8	66.8	66.8	59	52.0	0	1	248	0.00	29.664 
02:45	66.8	66.8	66.8	60	52.5	0	1	248	0.00	29.664 
02:50	66.8	66.8	66.8	61	52.9	0	0	---	0.00	29.663 
02:55	66.6	66.6	66.6	62	53.2	0	0	---	0.00	29.660 
03:00	66.4	66.4	66.4	62	53.0	0	1	248	0.00	29.663 
03:05	66.4	66.4	66.4	62	53.0	0	1	248	0.00	29.665 
03:10	66.4	66.4	66.4	63	53.4	0	1	248	0.00	29.666 
03:15	66.4	66.4	66.4	63	53.4	0	1	248	0.00	29.669 
03:20	66.4	66.4	66.4	64	53.8	0	1	248	0.00	29.675 
03:25	66.3	66.3	66.3	63	53.3	0	0	---	0.00	29.666 
03:30	66.1	66.1	66.1	64	53.6	0	1	248	0.00	29.666 
03:35	66.0	66.0	66.0	64	53.5	0	1	248	0.00	29.667 
03:40	65.8	65.8	65.8	64	53.3	0	1	248	0.00	29.665 
03:45	65.6	65.6	65.6	65	53.5	0	1	248	0.00	29.664 
03:50	65.3	65.3	65.3	66	53.6	0	1	248	0.00	29.667 
03:55	64.8	64.8	64.8	67	53.6	0	0	---	0.00	29.666 
04:00	64.5	64.5	64.5	67	53.3	0	1	248	0.00	29.666 
04:05	64.2	64.2	64.2	68	53.4	0	0	---	0.00	29.668 
04:10	63.9	63.9	63.9	69	53.5	0	0	---	0.00	29.665 
04:15	63.5	63.5	63.5	70	53.5	0	1	248	0.00	29.661 
04:20	63.2	63.2	63.2	72	54.0	0	0	---	0.00	29.659 
04:25	63.1	63.1	63.1	73	54.3	0	0	---	0.00	29.657 
04:30	62.7	62.7	62.7	73	53.9	0	1	248	0.00	29.657 
04:35	62.6	62.6	62.6	74	54.2	0	1	248	0.00	29.656 
04:40	62.4	62.4	62.4	74	54.0	0	1	248	0.00	29.658 
04:45	62.4	62.4	62.4	74	54.0	0	1	248	0.00	29.654 
04:50	62.3	62.3	62.3	74	53.9	0	1	248	0.00	29.654 
04:55	62.3	62.3	62.3	74	53.9	0	1	248	0.00	29.654 
05:00	62.3	62.3	62.3	74	53.9	0	1	248	0.00	29.654 
05:05	62.4	62.4	62.4	74	54.0	0	2	248	0.00	29.653 
05:10	62.6	62.6	62.6	73	53.8	0	2	248	0.00	29.653 
05:15	62.9	62.9	62.9	73	54.1	0	1	292	0.00	29.653 
05:20	63.1	63.1	63.1	74	54.7	0	2	225	0.00	29.651 
05:25	63.2	63.2	63.2	73	54.4	0	1	248	0.00	29.650 
05:30	63.4	63.4	63.4	73	54.6	0	2	248	0.00	29.650 
05:35	63.7	63.7	63.7	74	55.3	0	2	270	0.00	29.650 
05:40	63.7	63.7	63.7	74	55.3	0	1	270	0.00	29.650 
05:45	63.9	63.9	63.9	74	55.4	1	4	270	0.00	29.645 
05:50	63.9	63.9	63.9	74	55.4	0	4	248	0.00	29.646 
05:55	63.9	63.9	63.9	74	55.4	1	4	248	0.00	29.646 
06:00	64.0	64.0	64.0	75	55.9	1	4	248	0.00	29.642 
06:05	64.0	64.0	64.0	76	56.3	1	4	248	0.00	29.643 
06:10	64.2	64.2	64.2	77	56.8	1	3	248	0.00	29.641 
06:15	64.3	64.3	64.3	77	56.9	1	5	248	0.00	29.638 
06:20	64.5	64.5	64.5	76	56.8	2	6	248	0.00	29.638 
06:25	64.5	64.5	64.5	77	57.1	0	6	225	0.00	29.633 
06:30	64.7	64.7	64.7	77	57.3	1	5	248	0.00	29.634 
06:35	64.8	64.8	64.8	77	57.4	1	5	270	0.00	29.633 
06:40	65.2	65.2	65.2	77	57.8	1	6	270	0.00	29.634 
06:45	65.5	65.5	65.5	77	58.1	1	5	248	0.00	29.633 
06:50	65.6	65.6	65.6	76	57.8	1	4	248	0.00	29.631 
06:55	65.8	65.8	65.8	76	58.0	1	5	45	0.00	29.629 
07:00	66.0	66.0	66.0	76	58.2	1	6	270	0.00	29.629 
07:05	66.1	66.1	66.1	76	58.3	1	4	270	0.00	29.636 
07:10	66.8	66.8	66.8	75	58.6	1	6	248	0.00	29.637 
07:15	67.6	67.6	67.6	74	59.0	2	6	248	0.00	29.638 
07:20	68.1	68.1	68.1	73	59.1	2	5	270	0.00	29.639 
07:25	68.6	68.6	68.6	73	59.6	2	6	270	0.00	29.639 
07:30	68.8	68.8	68.8	72	59.4	2	6	248	0.00	29.638 
07:35	68.9	68.9	68.9	73	59.9	2	5	248	0.00	29.638 
07:40	69.1	69.1	69.1	71	59.3	2	5	270	0.00	29.639 
07:45	69.3	69.3	69.3	72	59.9	1	5	270	0.00	29.639 
07:50	69.3	69.3	69.3	72	59.9	2	4	248	0.00	29.639 
07:55	69.1	69.1	69.1	71	59.3	3	7	248	0.00	29.638 
08:00	68.8	68.8	68.8	73	59.8	2	6	270	0.00	29.638 
08:05	68.8	68.8	68.8	73	59.8	2	3	248	0.00	29.638 
08:10	68.8	68.8	68.8	73	59.8	1	4	248	0.00	29.638 
08:15	68.8	68.8	68.8	73	59.8	1	4	270	0.00	29.637 
08:20	68.8	68.8	68.8	73	59.8	1	4	248	0.00	29.636 
08:25	68.8	68.8	68.8	72	59.4	2	5	248	0.00	29.635 
08:30	68.6	68.6	68.6	72	59.2	1	4	248	0.00	29.636 
08:35	68.6	68.6	68.6	72	59.2	3	7	270	0.00	29.638 
08:40	68.6	68.6	68.6	72	59.2	2	6	248	0.00	29.639 
08:45	69.1	69.1	69.1	71	59.3	3	9	270	0.00	29.639 
08:50	69.1	69.1	69.1	71	59.3	2	5	248	0.00	29.640 
08:55	69.3	69.3	69.3	70	59.1	2	5	248	0.00	29.642 
09:00	69.6	69.6	69.6	69	59.0	2	5	270	0.00	29.642 
09:05	70.1	70.1	70.1	69	59.4	2	6	248	0.00	29.641 
09:10	70.3	70.3	70.3	68	59.2	2	7	248	0.00	29.640 
09:15	70.3	70.3	70.3	67	58.8	3	6	248	0.00	29.644 
09:20	70.1	70.1	70.1	67	58.6	3	7	270	0.00	29.644 
09:25	69.9	69.9	69.9	68	58.8	2	5	248	0.00	29.643 
09:30	69.9	69.9	69.9	68	58.8	2	5	270	0.00	29.640 
09:35	69.6	69.6	69.6	69	59.0	2	5	248	0.00	29.641 
09:40	69.4	69.4	69.4	69	58.8	1	3	270	0.00	29.641 
09:45	69.4	69.4	69.4	69	58.8	2	6	248	0.00	29.643 
09:50	69.4	69.4	69.4	69	58.8	2	5	270	0.00	29.642 
09:55	69.6	69.6	69.6	69	59.0	2	5	248	0.00	29.644 
10:00	69.6	69.6	69.6	69	59.0	2	5	248	0.00	29.646 
10:05	69.6	69.6	69.6	69	59.0	3	6	270	0.00	29.647 
10:10	70.1	70.1	70.1	69	59.4	1	4	270	0.00	29.650 
10:15	70.3	70.3	70.3	68	59.2	1	5	225	0.00	29.648 
10:20	70.4	70.4	70.4	67	58.9	1	5	248	0.00	29.647 
10:25	71.5	71.5	71.5	69	60.8	1	5	270	0.00	29.646 
10:30	72.7	72.7	72.7	65	60.2	2	4	270	0.00	29.641 
10:35	72.5	72.5	72.5	63	59.2	2	5	270	0.00	29.642 
10:40	71.5	71.5	71.5	64	58.7	3	9	248	0.00	29.649 
10:45	71.3	71.3	71.3	65	58.9	2	5	248	0.00	29.650 
10:50	71.5	71.5	71.5	65	59.1	3	6	270	0.00	29.650 
10:55	71.8	71.8	71.8	64	59.0	3	6	270	0.00	29.651 
11:00	71.6	71.6	71.6	66	59.6	3	8	270	0.00	29.652 
11:05	70.4	70.4	70.4	68	59.3	3	5	270	0.00	29.656 
11:10	69.6	69.6	69.6	70	59.4	3	7	270	0.00	29.660 
11:15	68.9	68.9	68.9	73	59.9	3	6	270	0.00	29.662 
11:20	68.9	68.9	68.9	74	60.3	3	5	270	0.00	29.665 
11:25	69.8	69.8	69.8	76	61.9	3	5	270	0.00	29.666 
11:30	70.3	70.3	70.3	73	61.2	3	6	270	0.00	29.666 
11:35	69.8	69.8	69.8	73	60.7	3	5	270	0.00	29.667 
11:40	69.6	69.6	69.6	75	61.3	2	4	248	0.00	29.666 
11:45	69.8	69.8	69.8	72	60.4	2	5	248	0.00	29.665 
11:50	70.1	70.1	70.1	68	59.0	3	8	248	0.00	29.665 
11:55	70.4	70.4	70.4	68	59.3	3	9	270	0.00	29.666 
12:00	70.9	70.9	70.9	67	59.4	3	6	270	0.00	29.662 
12:05	71.5	71.5	71.5	65	59.1	3	6	270	0.00	29.664 
12:10	71.1	71.1	71.1	65	58.7	3	5	270	0.00	29.662 
12:15	70.9	70.9	70.9	65	58.5	3	7	270	0.00	29.662 
12:20	71.1	71.1	71.1	65	58.7	3	7	270	0.00	29.659 
12:25	72.1	72.1	72.1	65	59.7	3	6	270	0.00	29.660 
12:30	72.3	72.3	72.3	62	58.5	3	6	270	0.00	29.661 
12:35	72.0	72.0	72.0	64	59.1	3	6	270	0.00	29.664 
12:40	71.5	71.5	71.5	64	58.7	3	7	270	0.00	29.663 
12:45	71.3	71.3	71.3	66	59.3	3	7	270	0.00	29.666 
12:50	71.5	71.5	71.5	66	59.5	3	6	270	0.00	29.667 
12:55	71.6	71.6	71.6	65	59.2	4	9	270	0.00	29.667 
13:00	71.5	71.5	71.5	65	59.1	3	9	270	0.00	29.667 
13:05	71.5	71.5	71.5	66	59.5	3	9	248	0.00	29.672 
13:10	71.6	71.6	71.6	64	58.8	3	6	270	0.00	29.670 
13:15	72.0	72.0	72.0	64	59.1	4	7	270	0.00	29.673 
13:20	72.7	72.7	72.7	65	60.2	2	4	270	0.00	29.672 
13:25	72.8	72.8	72.8	64	59.9	3	7	248	0.00	29.672 
13:30	72.3	72.3	72.3	65	59.9	2	6	270	0.00	29.670 
13:35	72.5	72.5	72.5	66	60.5	3	7	315	0.00	29.668 
13:40	72.5	72.5	72.5	66	60.5	2	5	270	0.00	29.670 
13:45	72.3	72.3	72.3	66	60.3	2	5	292	0.00	29.671 
13:50	72.7	72.7	72.7	66	60.7	3	6	270	0.00	29.671 
13:55	71.8	71.8	71.8	67	60.2	3	5	270	0.00	29.672 
14:00	71.8	71.8	71.8	67	60.2	2	6	270	0.00	29.672 
14:05	72.0	72.0	72.0	67	60.4	2	5	270	0.00	29.672 
14:10	72.3	72.3	72.3	65	59.9	2	6	270	0.00	29.671 
14:15	72.3	72.3	72.3	64	59.4	3	6	270	0.00	29.673 
14:20	73.0	73.0	73.0	62	59.2	3	6	270	0.00	29.673 
14:25	73.0	73.0	73.0	62	59.2	2	4	270	0.00	29.673 
14:30	72.5	72.5	72.5	63	59.2	2	4	270	0.00	29.675 
14:35	72.1	72.1	72.1	63	58.8	3	6	270	0.00	29.675 
14:40	71.8	71.8	71.8	65	59.4	2	4	270	0.00	29.675 
14:45	72.0	72.0	72.0	66	60.0	2	5	270	0.00	29.677 
14:50	71.6	71.6	71.6	65	59.2	3	5	270	0.00	29.678 
14:55	71.5	71.5	71.5	65	59.1	1	3	292	0.00	29.681 
15:00	71.8	71.8	71.8	66	59.8	1	4	292	0.00	29.679 
15:05	72.3	72.3	72.3	64	59.4	2	4	292	0.00	29.681 
15:10	73.2	73.2	73.2	62	59.4	2	4	292	0.00	29.678 
15:15	74.2	74.2	74.2	61	59.9	2	5	270	0.00	29.678 
15:20	74.4	74.4	74.4	55	57.2	2	4	315	0.00	29.681 
15:25	74.4	74.4	74.4	56	57.7	2	4	292	0.00	29.682 
15:30	74.4	74.4	74.4	56	57.7	3	6	315	0.00	29.681 
15:35	74.2	74.2	74.2	54	56.5	2	6	270	0.00	29.682 
15:40	73.9	73.9	73.9	54	56.2	1	5	292	0.00	29.682 
15:45	74.6	74.6	74.6	55	57.3	2	4	292	0.00	29.684 
15:50	74.0	74.0	74.0	50	54.2	4	7	315	0.00	29.688 
15:55	74.2	74.2	74.2	52	55.4	3	7	270	0.00	29.687 
16:00	74.6	74.6	74.6	51	55.3	2	6	270	0.00	29.686 
16:05	74.0	74.0	74.0	53	55.8	3	7	270	0.00	29.690 
16:10	74.0	74.0	74.0	50	54.2	2	5	315	0.00	29.692 
16:15	74.7	74.7	74.7	50	54.8	2	5	315	0.00	29.691 
16:20	75.3	75.3	77.7	50	55.4	2	7	315	0.00	29.690 
16:25	75.4	75.4	77.8	50	55.4	1	6	315	0.00	29.691 
16:30	75.8	75.8	77.9	47	54.1	3	6	270	0.00	29.689 
16:35	75.8	75.8	78.0	48	54.7	2	4	292	0.00	29.690 
16:40	76.0	76.0	78.1	49	55.4	1	4	292	0.00	29.690 
16:45	75.8	75.8	77.9	46	53.5	2	7	315	0.00	29.691 
16:50	75.6	75.6	77.8	43	51.5	2	9	292	0.00	29.697 
16:55	75.3	75.3	77.7	45	52.5	3	6	315	0.00	29.697 
17:00	75.1	75.1	77.6	44	51.7	2	5	315	0.00	29.703 
17:05	74.9	74.9	74.9	44	51.5	2	6	315	0.00	29.699 
17:10	74.7	74.7	74.7	44	51.3	2	5	292	0.00	29.701 
17:15	74.7	74.7	74.7	45	51.9	2	6	315	0.00	29.702 
17:20	74.7	74.7	74.7	45	51.9	1	4	315	0.00	29.702 
17:25	75.1	75.1	77.7	46	52.9	1	4	315	0.00	29.701 
17:30	74.9	74.9	74.9	43	50.9	3	8	270	0.00	29.701 
17:35	74.6	74.6	74.6	45	51.8	2	4	315	0.00	29.702 
17:40	74.6	74.6	74.6	45	51.8	2	5	270	0.00	29.701 
17:45	74.4	74.4	74.4	46	52.3	2	5	315	0.00	29.703 
17:50	74.2	74.2	74.2	46	52.1	2	4	270	0.00	29.703 
17:55	74.2	74.2	74.2	46	52.1	2	4	292	0.00	29.705 
18:00	74.0	74.0	74.0	47	52.5	1	4	270	0.00	29.706 
18:05	73.7	73.7	73.7	47	52.2	1	3	270	0.00	29.707 
18:10	73.0	73.0	73.0	46	51.0	2	5	292	0.00	29.710 
18:15	72.8	72.8	72.8	49	52.5	1	3	292	0.00	29.712 
18:20	72.7	72.7	72.7	47	51.3	0	2	315	0.00	29.714 
18:25	72.5	72.5	72.5	47	51.1	1	4	292	0.00	29.716 
18:30	72.5	72.5	72.5	48	51.7	1	2	292	0.00	29.718 
18:35	72.3	72.3	72.3	49	52.1	1	3	270	0.00	29.718 
18:40	72.1	72.1	72.1	50	52.4	0	2	270	0.00	29.718 
18:45	72.1	72.1	72.1	50	52.4	0	1	270	0.00	29.717 
18:50	72.1	72.1	72.1	50	52.4	0	1	270	0.00	29.719 
18:55	72.1	72.1	72.1	51	53.0	0	1	270	0.00	29.719 
19:00	72.0	72.0	72.0	51	52.9	1	2	270	0.00	29.719 
19:05	71.5	71.5	71.5	57	55.5	3	7	292	0.00	29.723 
19:10	68.6	68.6	68.6	66	56.8	5	9	270	0.00	29.735 
19:15	66.9	66.9	66.9	71	57.2	4	8	315	0.00	29.739 
19:20	66.1	66.1	66.1	73	57.2	3	9	315	0.00	29.744 
19:25	65.8	65.8	65.8	74	57.3	2	4	315	0.00	29.746 
19:30	65.5	65.5	65.5	75	57.4	3	8	270	0.00	29.748 
19:35	65.3	65.3	65.3	77	57.9	2	5	248	0.00	29.750 
19:40	65.2	65.2	65.2	78	58.2	1	3	315	0.00	29.750 
19:45	65.0	65.0	65.0	78	58.0	1	4	315	0.00	29.749 
19:50	64.8	64.8	64.8	77	57.4	1	4	315	0.00	29.746 
19:55	64.8	64.8	64.8	78	57.8	0	1	315	0.00	29.741 
20:00	64.8	64.8	64.8	77	57.4	0	2	315	0.00	29.740 
20:05	64.8	64.8	64.8	77	57.4	0	1	315	0.00	29.740 
20:10	65.0	65.0	65.0	77	57.6	0	1	315	0.00	29.738 
20:15	65.0	65.0	65.0	77	57.6	0	0	---	0.00	29.735 
20:20	65.0	65.0	65.0	77	57.6	0	1	315	0.00	29.736 
20:25	65.0	65.0	65.0	77	57.6	0	1	315	0.00	29.736 
20:30	65.0	65.0	65.0	77	57.6	0	0	---	0.00	29.734 
20:35	64.8	64.8	64.8	77	57.4	0	1	315	0.00	29.731 
20:40	64.8	64.8	64.8	77	57.4	0	1	315	0.00	29.732 
20:45	64.8	64.8	64.8	77	57.4	0	1	315	0.00	29.733 
20:50	64.8	64.8	64.8	77	57.4	0	1	315	0.00	29.735 
20:55	64.8	64.8	64.8	76	57.0	0	1	315	0.00	29.738 
21:00	64.8	64.8	64.8	75	56.7	1	3	292	0.00	29.739 
21:05	64.8	64.8	64.8	74	56.3	1	3	270	0.00	29.741 
21:10	64.8	64.8	64.8	74	56.3	1	3	292	0.00	29.741 
21:15	64.7	64.7	64.7	74	56.2	1	2	292	0.00	29.743 
21:20	64.5	64.5	64.5	75	56.4	1	2	292	0.00	29.748 
21:25	64.3	64.3	64.3	75	56.2	1	3	270	0.00	29.751 
21:30	64.2	64.2	64.2	76	56.5	1	3	270	0.00	29.755 
21:35	64.2	64.2	64.2	76	56.5	0	2	270	0.00	29.755 
21:40	64.0	64.0	64.0	77	56.6	0	1	270	0.00	29.758 
21:45	63.9	63.9	63.9	78	56.9	0	1	270	0.00	29.762 
21:50	63.9	63.9	63.9	78	56.9	0	2	270	0.00	29.764 
21:55	63.7	63.7	63.7	78	56.7	1	2	270	0.00	29.765 
22:00	63.5	63.5	63.5	79	56.9	0	2	270	0.00	29.766 
22:05	63.5	63.5	63.5	80	57.2	0	2	270	0.00	29.766 
22:10	63.5	63.5	63.5	80	57.2	0	1	270	0.00	29.767 
22:15	63.5	63.5	63.5	80	57.2	0	2	270	0.00	29.766 
22:20	63.4	63.4	63.4	81	57.5	0	2	270	0.00	29.766 
22:25	63.4	63.4	63.4	81	57.5	0	3	270	0.00	29.765 
22:30	63.4	63.4	63.4	82	57.8	0	2	270	0.00	29.765 
22:35	63.4	63.4	63.4	82	57.8	0	3	292	0.00	29.765 
22:40	63.2	63.2	63.2	83	57.9	1	3	292	0.00	29.766 
22:45	63.2	63.2	63.2	83	57.9	1	3	292	0.00	29.766 
22:50	63.1	63.1	63.1	84	58.2	0	2	292	0.00	29.766 
22:55	62.9	62.9	62.9	84	58.0	1	2	292	0.00	29.768 
23:00	62.9	62.9	62.9	84	58.0	0	1	292	0.00	29.768 
23:05	62.7	62.7	62.7	85	58.1	0	2	292	0.00	29.767 
23:10	62.6	62.6	62.6	85	58.0	0	1	292	0.00	29.768 
23:15	62.6	62.6	62.6	86	58.3	0	1	292	0.00	29.768 
23:20	62.4	62.4	62.4	86	58.2	0	2	292	0.00	29.770 
23:25	62.4	62.4	62.4	86	58.2	0	1	292	0.00	29.770 
23:30	62.4	62.4	62.4	87	58.5	1	3	292	0.00	29.771 
23:35	62.4	62.4	62.4	87	58.5	0	3	270	0.00	29.770 
23:40	62.4	62.4	62.4	87	58.5	1	3	270	0.00	29.770 
23:45	62.6	62.6	62.6	87	58.7	0	3	292	0.00	29.768 
23:50	62.6	62.6	62.6	87	58.7	1	4	315	0.00	29.769 
23:55	62.6	62.6	62.6	87	58.7	1	2	315	0.00	29.768 

CoCoRaHS
IN-AL-39
A2 Web Hosting
Creative Commons License
GoDaddy
Look for:

loaded 2017-12-10 21:36:17 • last modified 2010-11-18 10:43:29
Privacy PolicyDisclaimer
• wx.awcolley.com is powered by PmWiki v.2002016 •
• all content (unless otherwise noted) © 2017 A W Colley